createdAt,value
2018-06-20T00:01:51.757Z,99.90
2018-06-20T00:04:21.335Z,99.90
2018-06-20T00:06:51.041Z,99.90
2018-06-20T00:09:20.298Z,99.90
2018-06-20T00:11:50.130Z,99.90
2018-06-20T00:14:19.679Z,99.90
2018-06-20T00:16:48.949Z,99.90
2018-06-20T00:19:18.982Z,99.90
2018-06-20T00:21:48.362Z,99.90
2018-06-20T00:24:18.409Z,99.90
2018-06-20T00:26:48.053Z,99.90
2018-06-20T00:29:17.326Z,99.90
2018-06-20T00:31:46.962Z,99.90
2018-06-20T00:34:16.836Z,99.90
2018-06-20T00:36:46.259Z,99.90
2018-06-20T00:39:16.140Z,99.90
2018-06-20T00:41:45.372Z,99.90
2018-06-20T00:44:15.340Z,99.90
2018-06-20T00:46:44.555Z,99.90
2018-06-20T00:49:13.917Z,99.90
2018-06-20T00:51:43.498Z,99.90
2018-06-20T00:54:12.693Z,99.90
2018-06-20T00:56:41.929Z,99.90
2018-06-20T00:59:11.569Z,99.90
2018-06-20T01:01:41.033Z,99.90
2018-06-20T01:04:10.372Z,99.90
2018-06-20T01:06:39.872Z,99.90
2018-06-20T01:09:10.854Z,99.90
2018-06-20T01:11:40.139Z,99.90
2018-06-20T01:14:09.349Z,99.90
2018-06-20T01:16:38.752Z,99.90
2018-06-20T01:19:08.190Z,99.90
2018-06-20T01:21:38.240Z,99.90
2018-06-20T01:24:07.480Z,99.90
2018-06-20T01:26:36.942Z,99.90
2018-06-20T01:29:06.164Z,99.90
2018-06-20T01:31:36.033Z,99.90
2018-06-20T01:34:05.698Z,99.90
2018-06-20T01:36:34.948Z,99.90
2018-06-20T01:39:08.225Z,99.90
2018-06-20T01:41:37.625Z,99.90
2018-06-20T01:44:06.887Z,99.90
2018-06-20T01:46:36.536Z,99.90
2018-06-20T01:49:05.796Z,99.90
2018-06-20T01:51:35.038Z,99.90
2018-06-20T01:54:04.254Z,99.90
2018-06-20T01:56:34.093Z,99.90
2018-06-20T01:59:03.415Z,99.90
2018-06-20T02:01:32.695Z,99.90
2018-06-20T02:04:02.532Z,99.90
2018-06-20T02:06:31.725Z,99.90
2018-06-20T02:09:01.178Z,99.90
2018-06-20T02:11:31.637Z,99.90
2018-06-20T02:14:01.277Z,99.90
2018-06-20T02:16:30.525Z,99.90
2018-06-20T02:19:00.403Z,99.90
2018-06-20T02:21:29.693Z,99.90
2018-06-20T02:23:59.730Z,99.90
2018-06-20T02:26:29.647Z,99.90
2018-06-20T02:29:00.938Z,99.90
2018-06-20T02:33:59.334Z,99.90
2018-06-20T02:36:33.492Z,99.90
2018-06-20T02:39:05.853Z,99.90
2018-06-20T02:41:35.989Z,99.90
2018-06-20T02:44:05.541Z,99.90
2018-06-20T02:46:35.004Z,99.90
2018-06-20T02:49:04.910Z,99.90
2018-06-20T02:51:34.216Z,99.90
2018-06-20T02:54:03.945Z,99.90
2018-06-20T02:56:33.492Z,99.90
2018-06-20T02:59:03.073Z,99.90
2018-06-20T03:01:32.670Z,99.90
2018-06-20T03:04:02.014Z,99.90
2018-06-20T03:06:31.551Z,99.90
2018-06-20T03:09:01.791Z,99.90
2018-06-20T03:11:31.328Z,99.90
2018-06-20T03:14:01.441Z,99.90
2018-06-20T03:16:30.739Z,99.90
2018-06-20T03:19:00.047Z,99.90
2018-06-20T03:21:29.887Z,99.90
2018-06-20T03:23:59.408Z,99.90
2018-06-20T03:26:28.830Z,99.90
2018-06-20T03:28:58.245Z,99.90
2018-06-20T03:31:28.988Z,99.90
2018-06-20T03:33:58.553Z,99.90
2018-06-20T03:36:27.948Z,99.90
2018-06-20T03:38:57.731Z,99.90
2018-06-20T03:42:56.386Z,99.90
2018-06-20T03:45:26.115Z,99.90
2018-06-20T03:47:55.386Z,99.90
2018-06-20T03:50:24.620Z,99.90
2018-06-20T03:52:54.601Z,99.90
2018-06-20T03:55:23.885Z,99.90
2018-06-20T03:57:53.102Z,99.90
2018-06-20T04:00:31.424Z,99.90
2018-06-20T04:03:01.166Z,99.90
2018-06-20T04:05:31.076Z,99.90
2018-06-20T04:08:00.951Z,99.90
2018-06-20T04:10:30.358Z,99.90
2018-06-20T04:13:00.200Z,99.90
2018-06-20T04:15:30.066Z,99.90
2018-06-20T04:20:28.275Z,99.90
2018-06-20T04:22:58.063Z,99.90
2018-06-20T04:25:27.287Z,99.90
2018-06-20T04:27:56.537Z,99.90
2018-06-20T04:30:33.200Z,99.90
2018-06-20T04:33:02.925Z,99.90
2018-06-20T04:35:32.237Z,99.90
2018-06-20T04:40:32.165Z,99.90
2018-06-20T04:43:01.908Z,99.90
2018-06-20T04:45:32.078Z,99.90
2018-06-20T04:48:01.566Z,99.90
2018-06-20T04:50:33.806Z,99.90
2018-06-20T04:53:03.609Z,99.90
2018-06-20T04:55:34.391Z,99.90
2018-06-20T04:59:56.868Z,99.90
2018-06-20T05:02:26.989Z,99.90
2018-06-20T05:04:56.224Z,99.90
2018-06-20T05:07:25.769Z,99.90
2018-06-20T05:09:56.381Z,99.90
2018-06-20T05:12:26.929Z,99.90
2018-06-20T05:14:57.045Z,99.90
2018-06-20T05:17:26.747Z,99.90
2018-06-20T05:19:57.790Z,99.90
2018-06-20T05:22:40.919Z,99.90
2018-06-20T05:25:14.555Z,99.90
2018-06-20T05:27:58.785Z,99.90
2018-06-20T05:30:38.390Z,99.90
2018-06-20T05:40:20.947Z,99.90
2018-06-20T05:42:50.164Z,99.90
2018-06-20T05:45:19.929Z,99.90
2018-06-20T05:47:49.838Z,99.90
2018-06-20T05:50:27.140Z,99.90
2018-06-20T05:52:57.797Z,99.90
2018-06-20T05:55:27.621Z,99.90
2018-06-20T05:57:57.409Z,99.90
2018-06-20T06:00:28.842Z,99.90
2018-06-20T06:03:15.175Z,99.90
2018-06-20T06:05:55.674Z,99.90
2018-06-20T06:08:25.034Z,99.90
2018-06-20T06:10:54.980Z,99.90
2018-06-20T06:18:22.696Z,99.90
2018-06-20T06:20:55.206Z,99.90
2018-06-20T06:23:26.339Z,99.90
2018-06-20T06:25:56.468Z,99.90
2018-06-20T06:28:26.178Z,99.90
2018-06-20T06:30:56.951Z,99.90
2018-06-20T06:37:21.713Z,99.90
2018-06-20T06:39:51.093Z,99.90
2018-06-20T06:42:20.346Z,99.90
2018-06-20T06:44:51.351Z,99.90
2018-06-20T06:47:20.987Z,99.90
2018-06-20T06:55:19.313Z,99.20
2018-06-20T06:57:48.604Z,98.70
2018-06-20T07:00:33.968Z,96.70
2018-06-20T07:03:06.338Z,96.50
2018-06-20T07:05:37.045Z,96.00
2018-06-20T07:08:22.906Z,95.40
2018-06-20T07:10:53.294Z,95.00
2018-06-20T07:13:22.848Z,93.20
2018-06-20T07:18:36.841Z,85.10
2018-06-20T07:21:07.245Z,87.20
2018-06-20T07:23:36.582Z,89.00
2018-06-20T07:26:06.229Z,86.80
2018-06-20T07:28:35.490Z,81.30
2018-06-20T07:31:05.497Z,76.50
2018-06-20T07:33:35.387Z,86.60
2018-06-20T07:36:04.700Z,89.60
2018-06-20T07:38:34.230Z,84.20
2018-06-20T07:41:04.343Z,79.60
2018-06-20T07:43:35.247Z,87.60
2018-06-20T07:46:18.312Z,90.50
2018-06-20T07:48:47.574Z,91.10
2018-06-20T07:51:17.233Z,91.90
2018-06-20T07:53:47.141Z,92.10
2018-06-20T07:56:17.199Z,94.10
2018-06-20T07:59:03.339Z,94.60
2018-06-20T08:03:04.393Z,94.10
2018-06-20T08:05:41.053Z,97.20
2018-06-20T08:08:16.841Z,98.60
2018-06-20T08:10:51.802Z,97.30
2018-06-20T08:13:32.792Z,97.80
2018-06-20T08:16:10.121Z,95.20
2018-06-20T08:18:46.209Z,96.50
2018-06-20T08:21:17.549Z,97.10
2018-06-20T08:23:47.112Z,95.40
2018-06-20T08:26:16.429Z,97.60
2018-06-20T08:28:46.863Z,99.90
2018-06-20T08:31:26.565Z,99.90
2018-06-20T08:33:58.489Z,99.20
2018-06-20T08:36:27.968Z,97.50
2018-06-20T08:39:01.266Z,98.50
2018-06-20T08:41:31.278Z,99.90
2018-06-20T08:44:00.947Z,98.80
2018-06-20T08:46:32.680Z,96.90
2018-06-20T08:49:06.424Z,98.00
2018-06-20T08:51:41.232Z,96.60
2018-06-20T08:54:11.079Z,95.60
2018-06-20T08:56:41.776Z,94.00
2018-06-20T08:59:11.014Z,96.10
2018-06-20T09:01:42.484Z,95.20
2018-06-20T09:04:17.513Z,93.80
2018-06-20T09:06:52.161Z,97.60
2018-06-20T09:09:28.732Z,94.60
2018-06-20T09:12:05.092Z,93.40
2018-06-20T09:20:10.562Z,95.10
2018-06-20T09:22:40.242Z,93.70
2018-06-20T09:25:09.569Z,93.60
2018-06-20T09:27:40.000Z,95.00
2018-06-20T09:30:09.373Z,94.10
2018-06-20T09:32:39.376Z,95.60
2018-06-20T09:35:08.993Z,95.60
2018-06-20T09:37:57.592Z,93.50
2018-06-20T09:40:42.056Z,93.70
2018-06-20T09:43:11.382Z,97.30
2018-06-20T09:45:40.989Z,94.00
2018-06-20T09:48:10.331Z,92.40
2018-06-20T09:50:45.565Z,92.60
2018-06-20T09:53:28.889Z,92.50
2018-06-20T09:56:02.159Z,92.20
2018-06-20T09:59:20.146Z,91.80
2018-06-20T10:01:56.544Z,93.90
2018-06-20T10:04:33.368Z,93.50
2018-06-20T10:07:11.112Z,93.40
2018-06-20T10:12:54.776Z,91.70
2018-06-20T10:15:31.707Z,92.60
2018-06-20T10:18:01.315Z,93.10
2018-06-20T10:20:33.327Z,92.60
2018-06-20T10:23:36.795Z,95.00
2018-06-20T10:26:14.716Z,94.80
2018-06-20T10:28:46.621Z,91.70
2018-06-20T10:31:15.923Z,92.40
2018-06-20T10:33:46.104Z,93.40
2018-06-20T10:36:22.082Z,94.30
2018-06-20T10:38:51.775Z,92.90
2018-06-20T10:41:21.495Z,90.60
2018-06-20T10:46:26.909Z,92.80
2018-06-20T10:48:57.900Z,92.30
2018-06-20T10:51:27.787Z,94.50
2018-06-20T10:54:02.335Z,92.20
2018-06-20T10:56:42.954Z,95.80
2018-06-20T11:02:56.576Z,92.60
2018-06-20T11:05:32.555Z,94.30
2018-06-20T11:08:12.688Z,92.00
2018-06-20T11:13:39.481Z,91.20
2018-06-20T11:18:50.683Z,92.30
2018-06-20T11:21:37.322Z,91.30
2018-06-20T11:24:09.392Z,93.40
2018-06-20T11:26:38.853Z,91.50
2018-06-20T11:29:10.479Z,92.30
2018-06-20T11:31:40.714Z,92.80
2018-06-20T11:34:10.585Z,94.20
2018-06-20T11:39:12.299Z,93.30
2018-06-20T11:41:42.671Z,96.00
2018-06-20T11:44:14.495Z,93.60
2018-06-20T11:46:52.197Z,92.80
2018-06-20T11:49:21.616Z,93.30
2018-06-20T11:51:55.217Z,94.00
2018-06-20T11:54:25.853Z,93.00
2018-06-20T11:56:55.194Z,94.00
2018-06-20T11:59:30.838Z,93.50
2018-06-20T12:02:18.203Z,94.20
2018-06-20T12:05:32.896Z,92.90
2018-06-20T12:08:09.154Z,93.10
2018-06-20T12:10:46.139Z,92.80
2018-06-20T12:15:24.568Z,93.30
2018-06-20T12:18:01.725Z,93.20
2018-06-20T12:20:36.263Z,92.80
2018-06-20T12:23:11.319Z,92.70
2018-06-20T12:25:46.136Z,93.30
2018-06-20T12:28:22.503Z,93.00
2018-06-20T12:31:23.622Z,93.40
2018-06-20T12:34:07.223Z,93.50
2018-06-20T12:36:46.316Z,93.40
2018-06-20T12:39:20.295Z,93.70
2018-06-20T12:41:56.924Z,94.00
2018-06-20T12:47:20.979Z,93.00
2018-06-20T12:49:56.626Z,93.90
2018-06-20T12:52:25.993Z,93.50
2018-06-20T12:54:56.010Z,94.80
2018-06-20T12:57:39.459Z,94.10
2018-06-20T13:00:24.953Z,94.40
2018-06-20T13:06:30.802Z,93.90
2018-06-20T13:09:03.056Z,94.30
2018-06-20T13:11:34.799Z,93.40
2018-06-20T13:14:10.103Z,93.80
2018-06-20T13:16:55.990Z,93.70
2018-06-20T13:20:09.862Z,95.30
2018-06-20T13:22:39.323Z,94.90
2018-06-20T13:25:11.503Z,95.70
2018-06-20T13:27:46.735Z,94.40
2018-06-20T13:30:16.551Z,94.80
2018-06-20T13:32:51.442Z,95.70
2018-06-20T13:35:28.409Z,94.80
2018-06-20T13:38:29.576Z,95.30
2018-06-20T13:41:07.453Z,95.40
2018-06-20T13:43:49.026Z,96.10
2018-06-20T13:46:36.014Z,95.10
2018-06-20T14:03:35.741Z,95.10
2018-06-20T14:06:15.040Z,95.50
2018-06-20T14:15:11.071Z,96.80
2018-06-20T14:17:51.329Z,95.80
2018-06-20T14:31:29.325Z,96.10
2018-06-20T14:34:05.043Z,95.10
2018-06-20T14:37:48.175Z,95.80
2018-06-20T14:40:38.817Z,96.30
2018-06-20T14:43:40.319Z,95.70
2018-06-20T14:46:20.872Z,96.20
2018-06-20T14:51:56.080Z,96.20
2018-06-20T14:54:50.578Z,95.30
2018-06-20T14:57:29.474Z,95.70
2018-06-20T15:00:04.609Z,96.30
2018-06-20T15:05:06.677Z,96.30
2018-06-20T15:07:38.623Z,95.50
2018-06-20T15:10:10.483Z,97.20
2018-06-20T15:12:40.774Z,96.20
2018-06-20T15:15:18.241Z,96.70
2018-06-20T15:20:48.288Z,96.20
2018-06-20T15:26:19.584Z,96.50
2018-06-20T15:28:56.764Z,96.90
2018-06-20T15:31:32.984Z,96.50
2018-06-20T15:34:07.586Z,96.60
2018-06-20T15:36:43.370Z,96.40
2018-06-20T15:39:13.062Z,96.80
2018-06-20T15:41:44.821Z,97.00
2018-06-20T15:44:14.971Z,97.00
2018-06-20T15:47:10.298Z,96.40
2018-06-20T15:49:39.774Z,97.10
2018-06-20T15:52:12.324Z,96.60
2018-06-20T15:54:47.301Z,96.70
2018-06-20T15:57:18.725Z,96.60
2018-06-20T15:59:52.403Z,96.30
2018-06-20T16:02:24.290Z,97.10
2018-06-20T16:07:52.083Z,95.90
2018-06-20T16:10:24.936Z,96.80
2018-06-20T16:19:33.110Z,96.40
2018-06-20T16:23:09.416Z,96.50
2018-06-20T16:28:27.138Z,97.10
2018-06-20T16:31:10.173Z,96.70
2018-06-20T16:33:57.242Z,97.10
2018-06-20T16:36:34.309Z,97.00
2018-06-20T16:39:06.109Z,96.80
2018-06-20T16:41:40.499Z,96.80
2018-06-20T16:44:12.247Z,96.60
2018-06-20T16:46:48.773Z,97.50
2018-06-20T16:49:18.002Z,96.90
2018-06-20T16:52:00.965Z,96.90
2018-06-20T16:54:31.158Z,97.10
2018-06-20T16:58:31.333Z,97.00
2018-06-20T17:01:08.833Z,96.80
2018-06-20T17:03:45.952Z,96.90
2018-06-20T17:08:56.336Z,97.10
2018-06-20T17:11:28.453Z,96.80
2018-06-20T17:14:04.329Z,96.70
2018-06-20T17:16:40.123Z,97.00
2018-06-20T17:21:54.953Z,97.20
2018-06-20T17:24:30.279Z,96.90
2018-06-20T17:27:00.406Z,97.30
2018-06-20T17:29:32.953Z,97.30
2018-06-20T17:32:08.055Z,97.20
2018-06-20T17:34:45.174Z,97.20
2018-06-20T17:37:23.150Z,97.60
2018-06-20T17:39:57.327Z,97.60
2018-06-20T17:42:38.579Z,98.10
2018-06-20T17:47:46.753Z,97.60
2018-06-20T17:50:35.984Z,99.00
2018-06-20T17:53:10.821Z,98.20
2018-06-20T17:55:40.274Z,98.50
2018-06-20T17:58:09.909Z,99.20
2018-06-20T18:00:46.509Z,98.60
2018-06-20T18:03:17.242Z,99.50
2018-06-20T18:05:54.743Z,99.90
2018-06-20T18:08:29.530Z,99.90
2018-06-20T18:11:07.038Z,99.90
2018-06-20T18:13:43.750Z,99.90
2018-06-20T18:19:29.613Z,99.90
2018-06-20T18:21:59.673Z,99.90
2018-06-20T18:24:31.644Z,99.90
2018-06-20T18:27:07.966Z,99.90
2018-06-20T18:29:46.643Z,99.90
2018-06-20T18:32:15.956Z,99.90
2018-06-20T18:34:47.155Z,99.90
2018-06-20T18:37:17.496Z,99.90
2018-06-20T18:39:52.270Z,99.90
2018-06-20T18:42:22.301Z,99.90
2018-06-20T18:44:52.090Z,99.90
2018-06-20T18:47:27.792Z,99.90
2018-06-20T18:49:58.177Z,99.90
2018-06-20T18:52:29.125Z,99.90
2018-06-20T18:54:59.202Z,99.90
2018-06-20T18:57:34.385Z,99.90
2018-06-20T19:00:09.278Z,99.90
2018-06-20T19:02:44.070Z,99.90
2018-06-20T19:05:19.262Z,99.90
2018-06-20T19:08:23.151Z,99.90
2018-06-20T19:10:53.712Z,99.90
2018-06-20T19:13:56.546Z,99.90
2018-06-20T19:16:25.850Z,99.90
2018-06-20T19:18:55.769Z,99.90
2018-06-20T19:21:26.550Z,99.90
2018-06-20T19:23:56.238Z,99.90
2018-06-20T19:26:25.909Z,99.90
2018-06-20T19:28:56.635Z,99.90
2018-06-20T19:31:32.099Z,99.90
2018-06-20T19:36:32.143Z,99.90
2018-06-20T19:39:06.032Z,99.90
2018-06-20T19:41:35.310Z,99.90
2018-06-20T19:44:11.794Z,99.90
2018-06-20T19:46:41.538Z,99.90
2018-06-20T19:49:10.846Z,99.90
2018-06-20T19:51:40.498Z,99.90
2018-06-20T19:54:10.187Z,99.90
2018-06-20T19:56:39.475Z,99.90
2018-06-20T19:59:09.466Z,99.90
2018-06-20T20:01:40.183Z,99.90
2018-06-20T20:04:09.443Z,99.90
2018-06-20T20:06:38.747Z,99.90
2018-06-20T20:09:09.985Z,99.90
2018-06-20T20:11:39.698Z,99.90
2018-06-20T20:14:10.025Z,99.90
2018-06-20T20:16:39.541Z,99.90
2018-06-20T20:19:08.833Z,99.90
2018-06-20T20:21:38.145Z,99.90
2018-06-20T20:24:09.581Z,99.90
2018-06-20T20:27:37.178Z,99.90
2018-06-20T20:30:07.591Z,99.90
2018-06-20T20:32:36.869Z,99.90
2018-06-20T20:35:06.170Z,99.90
2018-06-20T20:37:38.104Z,99.90
2018-06-20T20:40:07.319Z,99.90
2018-06-20T20:42:36.688Z,99.90
2018-06-20T20:45:06.829Z,99.90
2018-06-20T20:47:36.088Z,99.90
2018-06-20T20:50:05.645Z,99.90
2018-06-20T20:52:35.821Z,99.90
2018-06-20T20:55:05.506Z,99.90
2018-06-20T20:57:34.745Z,99.90
2018-06-20T21:00:04.302Z,99.90
2018-06-20T21:02:33.563Z,99.90
2018-06-20T21:05:03.329Z,99.90
2018-06-20T21:07:32.902Z,99.90
2018-06-20T21:10:02.182Z,99.90
2018-06-20T21:12:31.489Z,99.90
2018-06-20T21:15:00.989Z,99.90
2018-06-20T21:17:30.175Z,99.90
2018-06-20T21:19:59.689Z,99.90
2018-06-20T21:24:58.171Z,99.90
2018-06-20T21:27:27.420Z,99.90
2018-06-20T21:29:56.957Z,99.90
2018-06-20T21:32:26.205Z,99.90
2018-06-20T21:37:24.686Z,99.90
2018-06-20T21:39:53.912Z,99.90
2018-06-20T21:44:52.222Z,99.90
2018-06-20T21:47:21.497Z,99.90
2018-06-20T21:49:50.805Z,99.90
2018-06-20T21:52:20.642Z,99.90
2018-06-20T21:54:50.310Z,99.90
2018-06-20T21:57:20.234Z,99.90
2018-06-20T21:59:50.144Z,99.90
2018-06-20T22:02:19.827Z,99.90
2018-06-20T22:04:51.700Z,99.90
2018-06-20T22:07:22.011Z,99.90
2018-06-20T22:09:52.645Z,99.90
2018-06-20T22:12:22.185Z,99.90
2018-06-20T22:14:52.191Z,99.90
2018-06-20T22:17:22.788Z,99.90
2018-06-20T22:19:53.703Z,99.90
2018-06-20T22:22:23.051Z,99.90
2018-06-20T22:24:52.298Z,99.90
2018-06-20T22:27:22.157Z,99.90
2018-06-20T22:29:51.788Z,99.90
2018-06-20T22:32:21.840Z,99.90
2018-06-20T22:34:51.526Z,99.90
2018-06-20T22:37:20.758Z,99.90
2018-06-20T22:39:50.505Z,99.90
2018-06-20T22:42:20.466Z,99.90
2018-06-20T22:44:50.026Z,99.90
2018-06-20T22:47:19.264Z,99.90
2018-06-20T22:49:49.251Z,99.90
2018-06-20T22:52:18.487Z,99.90
2018-06-20T22:54:47.695Z,99.90
2018-06-20T22:57:17.253Z,99.90
2018-06-20T22:59:46.474Z,99.90
2018-06-20T23:02:15.755Z,99.90
2018-06-20T23:04:45.337Z,99.90
2018-06-20T23:07:14.998Z,99.90
2018-06-20T23:09:44.227Z,99.90
2018-06-20T23:12:13.513Z,99.90
2018-06-20T23:14:42.759Z,99.90
2018-06-20T23:17:11.974Z,99.90
2018-06-20T23:19:41.528Z,99.90
2018-06-20T23:22:10.729Z,99.90
2018-06-20T23:24:39.915Z,99.90
2018-06-20T23:27:09.105Z,99.90
2018-06-20T23:29:38.309Z,99.90
2018-06-20T23:34:36.402Z,99.90
2018-06-20T23:37:05.609Z,99.90
2018-06-20T23:39:35.584Z,99.90
2018-06-20T23:42:04.801Z,99.90
2018-06-20T23:47:03.541Z,99.90
2018-06-20T23:49:32.999Z,99.90
2018-06-20T23:54:31.439Z,99.90
2018-06-20T23:57:01.563Z,99.90
2018-06-20T23:59:36.727Z,99.90
